Have a Safe July 4th! 

Flight Track Log - Related Links

Times and Time Zones

All times are in EDT time to prevent confusion due to time zone crossing. See the DAL1022 flight status page for this flight to view local times or setup timezone preferences in your user account.

Time Position Orientation Groundspeed Altitude Reporting Facility
EDT Latitude Longitude Course Direction KTS MPH feet Rate Location/Type
Sat 11:24:03 AM 33.6500 -84.3500 252° West 208 239 2,700  Level Atlanta TRACON
Sat 11:25:03 AM 33.6833 -84.2833 59° Northeast 276 318 5,100 2,810 Climbing Atlanta TRACON
Sat 11:26:00 AM 33.8001 -84.4277 270° West  Level FlightAware Approximate
Sat 11:26:09 AM 33.7833 -84.2833 360° North 282 325 8,600  Level Atlanta TRACON
Sat 11:27:00 AM 33.8000 -84.5867 270° West  Level FlightAware Approximate
Sat 11:27:03 AM 33.8167 -84.3333 309° West 305 351 10,800  Level Atlanta TRACON
Sat 11:28:00 AM 33.7663 -84.7391 252° West  Level FlightAware Approximate
Sat 11:28:57 AM 33.8100 -84.5489 268° West 353 406 14,000  Level Atlanta Center
Sat 11:29:00 AM 33.7245 -84.8899 252° West  Level FlightAware Approximate
Sat 11:29:57 AM 33.7906 -84.6736 259° West 370 426 15,000  Level Atlanta Center
Sat 11:30:57 AM 33.7564 -84.8058 253° West 397 457 16,700 1,750 Climbing Atlanta Center
Sat 11:31:57 AM 33.7156 -84.9628 253° West 430 495 18,500 1,750 Climbing Atlanta Center
Sat 11:32:57 AM 33.6833 -85.0997 254° West 438 504 20,200 1,400 Climbing Atlanta Center
Sat 11:33:57 AM 33.6528 -85.2442 256° West 438 504 21,300 1,200 Climbing Atlanta Center
Sat 11:34:57 AM 33.6531 -85.4014 270° West 456 525 22,600 1,250 Climbing Atlanta Center
Sat 11:35:57 AM 33.6556 -85.5536 271° West 461 531 23,800 1,150 Climbing Atlanta Center
Sat 11:36:57 AM 33.6581 -85.6908 271° West 466 536 24,900 1,250 Climbing Atlanta Center
Sat 11:37:57 AM 33.6558 -85.8431 269° West 458 527 26,300 1,550 Climbing Atlanta Center
Sat 11:38:57 AM 33.6619 -85.9931 273° West 458 527 28,000 1,400 Climbing Atlanta Center
Sat 11:39:57 AM 33.6719 -86.1456 275° West 458 527 29,100 1,000 Climbing Atlanta Center
Sat 11:40:57 AM 33.6986 -86.2936 282° West 458 527 30,000 450 Climbing Atlanta Center
Sat 11:41:57 AM 33.7269 -86.4392 283° West 458 527 30,000  Level Atlanta Center
Sat 11:42:57 AM 33.7533 -86.5872 282° West 453 521 30,000  Level Atlanta Center
Sat 11:43:57 AM 33.7772 -86.7356 281° West 453 521 30,000  Level Atlanta Center
Sat 11:44:57 AM 33.8033 -86.8786 282° West 453 521 30,000  Level Atlanta Center
Sat 11:45:57 AM 33.8350 -87.0397 283° West 448 516 30,000  Level Atlanta Center
Sat 11:46:57 AM 33.8625 -87.1883 283° West 448 516 30,000  Level Atlanta Center
Sat 11:47:28 AM 33.8797 -87.2672 285° West 455 524 30,000  Level Memphis Center
Sat 11:48:28 AM 33.9103 -87.4189 284° West 472 543 30,000  Level Memphis Center
Sat 11:49:28 AM 33.9369 -87.5706 282° West 461 531 30,000  Level Memphis Center
Sat 11:50:28 AM 33.9672 -87.7175 284° West 461 531 30,000  Level Memphis Center
Sat 11:51:28 AM 33.9933 -87.8719 282° West 468 539 30,000  Level Memphis Center
Sat 11:52:28 AM 34.0192 -88.0242 282° West 468 539 30,000  Level Memphis Center
Sat 11:53:28 AM 34.0447 -88.1611 283° West 468 539 30,000  Level Memphis Center
Sat 11:54:28 AM 34.0703 -88.3186 281° West 473 544 30,000  Level Memphis Center
Sat 11:55:28 AM 34.0978 -88.4708 282° West 473 544 30,000  Level Memphis Center
Sat 11:56:28 AM 34.1231 -88.6208 282° West 467 537 30,000  Level Memphis Center
Sat 11:57:28 AM 34.1500 -88.7733 282° West 467 537 30,000  Level Memphis Center
Sat 11:58:28 AM 34.1769 -88.9236 282° West 467 537 30,000  Level Memphis Center
Sat 11:59:28 AM 34.1975 -89.0939 278° West 472 543 30,000  Level Memphis Center
Sat 12:00:28 PM 34.2178 -89.2519 279° West 472 543 30,000  Level Memphis Center
Sat 12:01:28 PM 34.2358 -89.4050 278° West 466 536 30,000  Level Memphis Center
Sat 12:02:28 PM 34.2556 -89.5531 279° West 466 536 30,000  Level Memphis Center
Sat 12:03:28 PM 34.2733 -89.7086 278° West 466 536 30,000  Level Memphis Center
Sat 12:04:28 PM 34.2947 -89.8644 279° West 466 536 30,000  Level Memphis Center
Sat 12:05:28 PM 34.3119 -90.0178 278° West 461 531 30,000  Level Memphis Center
Sat 12:06:28 PM 34.3292 -90.1558 279° West 466 536 30,000  Level Memphis Center
Sat 12:07:28 PM 34.3481 -90.3094 279° West 466 536 30,000  Level Memphis Center
Sat 12:08:28 PM 34.3667 -90.4653 278° West 466 536 30,000  Level Memphis Center
Sat 12:09:28 PM 34.3853 -90.6189 278° West 466 536 30,000  Level Memphis Center
Sat 12:10:28 PM 34.4036 -90.7875 278° West 466 536 30,000  Level Memphis Center
Sat 12:11:28 PM 34.4239 -90.9464 279° West 466 536 30,000  Level Memphis Center
Sat 12:12:28 PM 34.4419 -91.1000 278° West 466 536 30,000  Level Memphis Center
Sat 12:13:28 PM 34.4575 -91.2589 277° West 466 536 30,000  Level Memphis Center
Sat 12:14:28 PM 34.4750 -91.4128 278° West 471 542 30,000  Level Memphis Center
Sat 12:15:28 PM 34.4925 -91.5692 278° West 466 536 30,000  Level Memphis Center
Sat 12:16:28 PM 34.5078 -91.7106 278° West 466 536 30,000  Level Memphis Center
Sat 12:17:28 PM 34.5244 -91.8822 277° West 466 536 30,000  Level Memphis Center
Sat 12:18:28 PM 34.5414 -92.0364 278° West 466 536 30,000  Level Memphis Center
Sat 12:19:28 PM 34.5600 -92.1956 278° West 472 543 30,000  Level Memphis Center
Sat 12:20:28 PM 34.5761 -92.3550 277° West 477 549 30,000  Level Memphis Center
Sat 12:21:28 PM 34.5922 -92.5167 277° West 483 556 30,000  Level Memphis Center
Sat 12:22:28 PM 34.6081 -92.6811 277° West 483 556 30,000  Level Memphis Center
Sat 12:23:28 PM 34.6239 -92.8381 277° West 483 556 30,000  Level Memphis Center
Sat 12:24:28 PM 34.6372 -93.0025 276° West 483 556 30,000  Level Memphis Center
Sat 12:25:28 PM 34.6547 -93.1622 278° West 483 556 30,000  Level Memphis Center
Sat 12:26:28 PM 34.6681 -93.3039 277° West 483 556 30,000  Level Memphis Center
Sat 12:27:28 PM 34.6808 -93.4633 276° West 483 556 30,000  Level Memphis Center
Sat 12:29:31 PM 34.7183 -93.8061 278° West 497 572 30,000  Level Fort Worth Center
Sat 12:30:31 PM 34.7311 -93.9672 276° West 492 566 30,000 350 Level Fort Worth Center
Sat 12:31:31 PM 34.7458 -94.1308 276° West 492 566 30,700 750 Climbing Fort Worth Center
Sat 12:32:31 PM 34.7583 -94.2922 275° West 486 559 31,500 650 Climbing Fort Worth Center
Sat 12:33:31 PM 34.7706 -94.4536 275° West 486 559 32,000 248 Climbing Fort Worth Center
Sat 12:34:32 PM 34.7847 -94.6172 276° West 486 559 32,000  Level Fort Worth Center
Sat 12:35:31 PM 34.7967 -94.7814 275° West 486 559 32,000  Level Fort Worth Center
Sat 12:36:31 PM 34.8083 -94.9428 275° West 486 559 32,000  Level Fort Worth Center
Sat 12:37:31 PM 34.8239 -95.0967 277° West 478 550 32,000  Level Fort Worth Center
Sat 12:38:31 PM 34.8328 -95.2533 274° West 472 543 32,000  Level Fort Worth Center
Sat 12:39:31 PM 34.8481 -95.4122 277° West 472 543 32,000  Level Fort Worth Center
Sat 12:40:31 PM 34.8561 -95.5386 274° West 472 543 32,000  Level Fort Worth Center
Sat 12:41:31 PM 34.8672 -95.7256 274° West 472 543 32,000  Level Fort Worth Center
Sat 12:42:31 PM 34.8797 -95.8872 275° West 478 550 32,000  Level Fort Worth Center
Sat 12:43:31 PM 34.8900 -96.0442 275° West 478 550 32,000  Level Fort Worth Center
Sat 12:44:31 PM 34.8997 -96.2033 274° West 478 550 32,000  Level Fort Worth Center
Sat 12:45:31 PM 34.9117 -96.3628 275° West 478 550 32,000  Level Fort Worth Center
Sat 12:46:31 PM 34.9214 -96.5247 274° West 478 550 32,000  Level Fort Worth Center
Sat 12:47:31 PM 34.9328 -96.6842 275° West 478 550 32,000  Level Fort Worth Center
Sat 12:48:31 PM 34.9419 -96.8411 274° West 478 550 32,000  Level Fort Worth Center
Sat 12:49:31 PM 34.9508 -97.0006 274° West 478 550 32,000  Level Fort Worth Center
Sat 12:50:31 PM 34.9597 -97.1603 274° West 478 550 32,000  Level Fort Worth Center
Sat 12:51:31 PM 34.9703 -97.3172 275° West 478 550 32,000  Level Fort Worth Center
Sat 12:52:32 PM 34.9808 -97.4744 275° West 478 550 32,000  Level Fort Worth Center
Sat 12:53:31 PM 34.9889 -97.6314 274° West 478 550 32,000  Level Fort Worth Center
Sat 12:54:31 PM 35.0011 -97.7911 275° West 478 550 32,000  Level Fort Worth Center
Sat 12:55:32 PM 35.0108 -97.9433 275° West 472 543 32,000  Level Fort Worth Center
Sat 12:56:31 PM 35.0186 -98.0981 274° West 472 543 32,000  Level Fort Worth Center
Sat 12:57:31 PM 35.0258 -98.2553 273° West 467 537 32,000  Level Fort Worth Center
Sat 12:58:32 PM 35.0353 -98.4075 274° West 462 532 32,000  Level Fort Worth Center
Sat 12:59:31 PM 35.0425 -98.5419 274° West 447 514 32,000  Level Fort Worth Center
Sat 01:00:31 PM 35.0511 -98.7094 274° West 447 514 32,000  Level Fort Worth Center
Sat 01:01:31 PM 35.0578 -98.8644 273° West 452 520 32,000  Level Fort Worth Center
Sat 01:02:31 PM 35.0664 -99.0192 274° West 457 526 32,000  Level Fort Worth Center
Sat 01:03:31 PM 35.0706 -99.1767 272° West 462 532 32,000  Level Fort Worth Center
Sat 01:04:31 PM 35.0786 -99.3289 274° West 462 532 32,000  Level Fort Worth Center
Sat 01:06:12 PM 35.0894 -99.5764 273° West 458 527 32,000  Level Albuquerque Center
Sat 01:07:14 PM 35.0950 -99.7308 273° West 455 524 32,000  Level Albuquerque Center
Sat 01:08:16 PM 35.0997 -99.8861 272° West 455 524 32,000  Level Albuquerque Center
Sat 01:09:17 PM 35.1075 -100.0447 273° West 459 528 32,000  Level Albuquerque Center
Sat 01:10:19 PM 35.1153 -100.2314 273° West 457 526 32,000  Level Albuquerque Center
Sat 01:11:21 PM 35.1197 -100.3839 272° West 459 528 32,000  Level Albuquerque Center
Sat 01:12:23 PM 35.1256 -100.5386 273° West 457 526 32,000  Level Albuquerque Center
Sat 01:13:24 PM 35.1306 -100.6928 272° West 457 526 32,000  Level Albuquerque Center
Sat 01:14:26 PM 35.1347 -100.8483 272° West 457 526 32,000  Level Albuquerque Center
Sat 01:15:28 PM 35.1394 -101.0039 272° West 460 529 32,000  Level Albuquerque Center
Sat 01:16:30 PM 35.1442 -101.1903 272° West 458 527 32,000  Level Albuquerque Center
Sat 01:17:31 PM 35.1483 -101.3339 272° West 460 529 32,000  Level Albuquerque Center
Sat 01:18:33 PM 35.1533 -101.4803 272° West 461 531 32,000  Level Albuquerque Center
Sat 01:19:35 PM 35.1581 -101.6364 272° West 460 529 32,000  Level Albuquerque Center
Sat 01:20:37 PM 35.1594 -101.8056 271° West 459 528 32,000  Level Albuquerque Center
Sat 01:21:39 PM 35.1628 -101.9814 271° West 459 528 32,000  Level Albuquerque Center
Sat 01:22:40 PM 35.1650 -102.1386 271° West 461 531 32,000  Level Albuquerque Center
Sat 01:23:42 PM 35.1681 -102.2936 271° West 459 528 32,000  Level Albuquerque Center
Sat 01:24:44 PM 35.1700 -102.4497 271° West 460 529 32,000  Level Albuquerque Center
Sat 01:25:46 PM 35.1731 -102.6058 271° West 460 529 32,000  Level Albuquerque Center
Sat 01:26:48 PM 35.1756 -102.7933 271° West 461 531 32,000  Level Albuquerque Center
Sat 01:27:50 PM 35.1781 -102.9497 271° West 462 532 32,000  Level Albuquerque Center
Sat 01:28:52 PM 35.1803 -103.0928 271° West 462 532 32,000  Level Albuquerque Center
Sat 01:29:53 PM 35.1822 -103.2786 271° West 464 534 32,000  Level Albuquerque Center
Sat 01:30:55 PM 35.1836 -103.4367 271° West 462 532 32,000  Level Albuquerque Center
Sat 01:31:57 PM 35.1844 -103.5950 270° West 463 533 32,000 -145 Level Albuquerque Center
Sat 01:32:59 PM 35.1781 -103.7539 267° West 464 534 31,700 -339 Descending Albuquerque Center
Sat 01:34:01 PM 35.1703 -103.9128 267° West 463 533 31,300 -339 Descending Albuquerque Center
Sat 01:35:03 PM 35.1656 -104.0647 268° West 466 536 31,000 -145 Descending Albuquerque Center
Sat 01:36:05 PM 35.1581 -104.2231 267° West 465 535 31,000  Level Albuquerque Center
Sat 01:37:07 PM 35.1478 -104.4128 266° West 467 537 31,000  Level Albuquerque Center
Sat 01:38:09 PM 35.1394 -104.5706 266° West 466 536 31,000  Level Albuquerque Center
Sat 01:39:11 PM 35.1297 -104.7217 266° West 468 539 31,000  Level Albuquerque Center
Sat 01:40:13 PM 35.1211 -104.8811 266° West 468 539 31,000 -97 Level Albuquerque Center
Sat 01:41:15 PM 35.1114 -105.0597 266° West 453 521 30,800 -1,065 Descending Albuquerque Center
Sat 01:42:17 PM 35.0883 -105.2131 260° West 452 520 28,800 -1,935 Descending Albuquerque Center
Sat 01:43:19 PM 35.0642 -105.3700 259° West 463 533 26,800 -1,790 Descending Albuquerque Center
Sat 01:44:21 PM 35.0397 -105.5194 259° West 452 520 25,100 -1,694 Descending Albuquerque Center
Sat 01:45:23 PM 35.0153 -105.6639 258° West 418 481 23,300 -1,790 Descending Albuquerque Center
Sat 01:46:25 PM 34.9897 -105.7914 256° West 392 451 21,400 -1,790 Descending Albuquerque Center
Sat 01:47:27 PM 34.9600 -105.9144 254° West 382 440 19,600 -1,548 Descending Albuquerque Center
Sat 01:48:29 PM 34.9400 -106.0283 258° West 352 405 18,200 -1,452 Descending Albuquerque Center
Sat 01:49:31 PM 34.9231 -106.1406 260° West 336 387 16,600 -1,694 Descending Albuquerque Center
Sat 01:50:33 PM 34.9183 -106.2594 267° West 322 371 14,700 -1,742 Descending Albuquerque Center
Sat 01:51:35 PM 34.9400 -106.3642 284° West 318 366 13,000 -1,645 Descending Albuquerque Center
Sat 01:52:37 PM 34.9450 -106.4686 273° West 306 352 11,300 -1,597 Descending Albuquerque Center
Sat 01:53:39 PM 34.9481 -106.5703 272° West 301 346 9,700 -1,116 Descending Albuquerque Center
Sat 01:54:46 PM 34.9533 -106.6856 273° West 248 285 8,900 -488 Descending Albuquerque Center
Sat 01:55:42 PM 34.9944 -106.7431 311° West 241 277 8,700 -661 Descending Albuquerque Center
Sat 01:56:44 PM 35.0433 -106.7611 343° North 217 250 7,600 -1,016 Descending Albuquerque Center
Sat 01:57:46 PM 35.0447 -106.6992 88° East 184 212 6,600 -968 Descending Albuquerque Center
Sat 01:58:48 PM 35.0433 -106.6389 92° East 164 189 5,600 -968 Descending Albuquerque Center

Login

Don't have an account? Register now (free) for customized features, flight alerts, and more!